Latest Weather Observations for Fitzroy Crossing

IDW60801

Issued at 2:35 pm WST Friday 25 July 2014 (issued every 30 minutes, with the page automatically refreshed every 10 minutes)

About weather observations | Map of weather stations | Latest weather observations for WA | Other Formats
Station Details ID: 003093 Name: FITZROY CROSSING AERO Lat: -18.18 Lon: 125.56 Height: 114.5 m
Data from the previous 72 hours. | See also: Recent months at Fitzroy Crossing
Date/Time
WST
Temp
°C
App
Temp
°C
Dew
Point
Rel
Hum
%
Delta-T
°C
Wind Press
QNH
hPa
Press
MSL
hPa
Rain
since 9 am
mm
Dir
 
Spd
km/h
Gust
km/h
Spd
kts
Gust
kts
25/02:30pm 29.2 25.5 2.5 18 13.3 SE 11 22 6 12 1015.9 - 0.0
25/02:00pm 28.8 24.2 1.3 17 13.4 SSE 15 22 8 12 1016.2 1015.8 0.0
25/01:30pm 28.9 24.0 2.2 18 13.2 SSE 17 28 9 15 1016.5 - 0.0
25/01:00pm 28.9 24.0 2.2 18 13.2 SE 17 28 9 15 1016.8 1016.4 0.0
25/12:30pm 28.1 23.1 1.6 18 12.9 SE 17 26 9 14 1017.2 - 0.0
25/12:00pm 28.2 23.3 1.7 18 12.9 SE 17 28 9 15 1017.8 1017.4 0.0
25/11:30am 27.1 21.6 0.8 18 12.5 SE 19 26 10 14 1018.4 - 0.0
25/11:00am 25.6 20.4 0.3 19 11.8 SE 17 24 9 13 1019.0 1018.6 0.0
25/10:30am 25.3 20.2 0.7 20 11.6 SE 17 28 9 15 1019.3 - 0.0
25/10:00am 24.4 19.0 1.3 22 10.9 E 19 28 10 15 1019.7 1019.3 0.0
25/09:30am 23.5 18.8 0.6 22 10.6 E 15 24 8 13 1019.9 - 0.0
25/09:00am 22.0 16.9 0.5 24 9.8 ESE 17 22 9 12 1020.1 1019.7 0.0
25/08:30am 21.5 17.2 1.2 26 9.3 SE 13 22 7 12 1019.9 - 0.0
25/08:00am 18.9 14.6 1.0 30 8.0 SE 13 19 7 10 1019.8 1019.4 0.0
25/07:30am 17.3 13.4 0.9 33 7.2 SSE 11 17 6 9 1019.5 - 0.0
25/07:00am 15.5 11.6 1.3 38 6.2 SSE 11 13 6 7 1019.2 1018.8 0.0
25/06:30am 12.7 9.3 2.0 48 4.6 S 9 13 5 7 1018.8 - 0.0
25/06:00am 13.1 10.1 1.8 46 4.9 S 7 13 4 7 1018.3 1017.9 0.0
25/05:30am 13.3 10.3 1.9 46 5.0 S 7 9 4 5 1017.8 - 0.0
25/05:00am 13.7 10.4 2.3 46 5.0 S 9 13 5 7 1017.4 1017.0 0.0
25/04:30am 13.3 9.6 2.2 47 4.9 SSW 11 13 6 7 1017.1 - 0.0
25/04:00am 13.6 10.3 2.5 47 4.9 S 9 11 5 6 1017.1 1016.7 0.0
25/03:30am 14.5 11.2 2.7 45 5.3 S 9 11 5 6 1016.9 - 0.0
25/03:00am 14.6 11.3 2.5 44 5.4 S 9 11 5 6 1016.9 1016.5 0.0
25/02:30am 14.2 12.6 2.5 45 5.2 CALM 0 0 0 0 1016.7 - 0.0
25/02:00am 15.8 12.8 2.2 40 6.1 S 7 11 4 6 1016.3 1015.9 0.0
25/01:30am 17.5 13.4 2.3 36 6.9 S 13 17 7 9 1016.2 - 0.0
25/01:00am 17.0 13.7 2.6 38 6.6 S 9 15 5 8 1016.5 1016.1 0.0
25/12:30am 16.8 13.8 2.0 37 6.7 SE 7 9 4 5 1016.7 - 0.0
25/12:00am 18.5 14.7 1.9 33 7.6 SE 11 15 6 8 1016.8 1016.4 0.0
 
Date/Time
WST
Temp
°C
App
Temp
°C
Dew
Point
Rel
Hum
%
Delta-T
°C
Wind Press
QNH
hPa
Press
MSL
hPa
Rain
since 9 am
mm
Dir
 
Spd
km/h
Gust
km/h
Spd
kts
Gust
kts
24/11:30pm 19.5 14.3 2.4 32 7.9 S 19 26 10 14 1016.7 - 0.0
24/11:00pm 18.6 14.2 2.9 35 7.3 SSW 15 19 8 10 1016.8 1016.4 0.0
24/10:30pm 20.0 16.0 2.8 32 8.1 S 13 17 7 9 1017.0 - 0.0
24/10:00pm 20.1 16.5 2.9 32 8.1 S 11 17 6 9 1016.9 1016.5 0.0
24/09:30pm 21.2 17.2 3.0 30 8.7 S 13 17 7 9 1016.9 - 0.0
24/09:00pm 21.6 17.4 3.8 31 8.6 S 15 19 8 10 1016.7 1016.3 0.0
24/08:30pm 21.4 17.6 4.0 32 8.5 S 13 17 7 9 1016.6 - 0.0
24/08:00pm 22.1 18.4 4.2 31 8.8 S 13 17 7 9 1016.2 1015.8 0.0
24/07:30pm 22.6 18.5 4.2 30 9.0 S 15 19 8 10 1015.8 - 0.0
24/07:00pm 22.9 18.8 4.4 30 9.1 S 15 17 8 9 1015.3 1014.9 0.0
24/06:30pm 23.3 19.6 4.3 29 9.4 SSW 13 13 7 7 1014.8 - 0.0
24/06:00pm 24.2 20.8 4.0 27 10.0 SSW 11 13 6 7 1014.4 1014.0 0.0
24/05:30pm 25.7 22.3 4.2 25 10.8 SSW 11 15 6 8 1014.3 - 0.0
24/05:00pm 27.3 22.7 3.7 22 11.9 SSW 17 24 9 13 1014.1 1013.7 0.0
24/04:30pm 28.2 23.4 4.5 22 12.2 S 19 24 10 13 1014.0 - 0.0
24/04:00pm 28.7 24.3 4.9 22 12.3 SSW 17 24 9 13 1013.7 1013.4 0.0
24/03:30pm 29.3 24.5 4.7 21 12.7 S 19 26 10 14 1013.4 - 0.0
24/03:00pm 29.5 25.9 4.9 21 12.8 SSW 13 24 7 13 1013.3 1013.0 0.0
24/02:30pm 29.4 24.5 4.1 20 13.0 SSW 19 24 10 13 1013.4 - 0.0
24/02:00pm 29.3 25.5 4.0 20 12.9 SSW 13 22 7 12 1013.5 1013.2 0.0
24/01:30pm 29.4 26.4 4.1 20 13.0 S 9 24 5 13 1014.1 - 0.0
24/01:00pm 28.9 25.7 5.1 22 12.4 S 11 19 6 10 1014.5 1014.1 0.0
24/12:30pm 28.5 25.2 4.7 22 12.3 SSE 11 20 6 11 1015.0 - 0.0
24/12:00pm 28.2 24.9 4.5 22 12.1 SSE 11 26 6 14 1015.4 1015.0 0.0
24/11:30am 27.4 22.8 3.8 22 11.9 S 17 26 9 14 1016.0 - 0.0
24/11:00am 26.8 23.0 4.0 23 11.5 SE 13 26 7 14 1016.5 1016.1 0.0
24/10:30am 26.1 22.0 4.6 25 10.9 SSE 15 24 8 13 1017.0 - 0.0
24/10:00am 25.6 21.8 4.1 25 10.7 SE 13 20 7 11 1017.4 1017.0 0.0
24/09:30am 24.4 20.3 4.2 27 10.1 SE 15 20 8 11 1017.7 - 0.0
24/09:00am 24.0 20.0 4.9 29 9.6 SE 15 22 8 12 1017.9 1017.5 0.0
24/08:30am 22.5 18.4 4.5 31 8.9 SE 15 22 8 12 1017.8 - 0.0
24/08:00am 20.7 17.7 5.9 38 7.4 SE 11 17 6 9 1017.6 1017.2 0.0
24/07:30am 19.5 16.6 6.3 42 6.6 SSE 11 13 6 7 1017.3 - 0.0
24/07:00am 18.4 16.0 6.9 47 5.8 S 9 11 5 6 1016.9 1016.5 0.0
24/06:30am 17.3 14.9 7.1 51 5.1 SSE 9 11 5 6 1016.5 - 0.0
24/06:00am 17.2 14.3 6.7 50 5.2 S 11 15 6 8 1016.3 1015.9 0.0
24/05:30am 18.0 14.8 6.8 48 5.6 S 13 17 7 9 1016.0 - 0.0
24/05:00am 18.7 15.1 6.9 46 5.9 SSE 15 20 8 11 1015.6 1015.2 0.0
24/04:30am 18.1 15.5 7.8 51 5.3 SE 11 15 6 8 1015.4 - 0.0
24/04:00am 18.5 16.0 8.2 51 5.3 SE 11 17 6 9 1015.2 1014.8 0.0
24/03:30am 19.1 15.9 8.4 50 5.6 ESE 15 19 8 10 1014.6 - 0.0
24/03:00am 18.5 15.3 8.5 52 5.2 SSW 15 19 8 10 1014.1 1013.7 0.0
24/02:30am 19.1 16.3 8.7 51 5.4 SSW 13 15 7 8 1014.1 - 0.0
24/02:00am 19.3 16.7 9.5 53 5.2 S 13 17 7 9 1014.1 1013.7 0.0
24/01:30am 19.9 18.1 9.5 51 5.6 S 9 13 5 7 1014.2 - 0.0
24/01:00am 20.0 18.7 9.9 52 5.4 S 7 9 4 5 1014.2 1013.8 0.0
24/12:30am 20.4 18.8 10.2 52 5.5 S 9 11 5 6 1014.2 - 0.0
24/12:00am 21.2 18.5 10.4 50 5.9 S 15 19 8 10 1014.3 1013.9 0.0
 
Date/Time
WST
Temp
°C
App
Temp
°C
Dew
Point
Rel
Hum
%
Delta-T
°C
Wind Press
QNH
hPa
Press
MSL
hPa
Rain
since 9 am
mm
Dir
 
Spd
km/h
Gust
km/h
Spd
kts
Gust
kts
23/11:30pm 21.9 18.8 10.4 48 6.3 SSE 17 20 9 11 1014.3 - 0.0
23/11:00pm 22.5 19.9 10.6 47 6.6 S 15 20 8 11 1014.5 1014.1 0.0
23/10:30pm 21.2 19.7 10.7 51 5.8 SW 9 13 5 7 1014.5 - 0.0
23/10:00pm 22.2 20.4 10.7 48 6.4 SSE 11 13 6 7 1014.5 1014.1 0.0
23/09:30pm 22.7 20.9 10.8 47 6.6 S 11 13 6 7 1014.5 - 0.0
23/09:00pm 23.8 21.6 10.8 44 7.3 S 13 15 7 8 1014.4 1014.0 0.0
23/08:30pm 24.3 22.1 10.9 43 7.5 S 13 17 7 9 1014.2 - 0.0
23/08:00pm 24.5 22.3 10.8 42 7.7 S 13 13 7 7 1013.9 1013.5 0.0
23/07:30pm 24.6 22.7 10.5 41 7.9 SSW 11 13 6 7 1013.7 - 0.0
23/07:00pm 25.5 23.5 10.1 38 8.6 S 11 13 6 7 1013.3 1013.0 0.0
23/06:30pm 26.1 24.1 10.3 37 8.8 SSW 11 11 6 6 1012.9 - 0.0
23/06:00pm 27.0 24.9 9.8 34 9.6 SSW 11 13 6 7 1012.7 1012.3 0.0
23/05:30pm 28.3 26.3 10.0 32 10.3 S 11 13 6 7 1012.4 - 0.0
23/05:00pm 29.8 27.2 9.3 28 11.5 S 13 17 7 9 1012.1 1011.7 0.0
23/04:30pm 30.5 27.2 9.4 27 11.9 SSW 17 20 9 11 1011.9 - 0.0
23/04:00pm 31.0 28.4 9.3 26 12.3 SSW 13 20 7 11 1011.7 1011.3 0.0
23/03:30pm 31.2 28.2 9.4 26 12.3 SSW 15 22 8 12 1011.7 - 0.0
23/03:00pm 31.2 28.2 9.4 26 12.3 S 15 20 8 11 1011.7 1011.3 0.0
23/02:30pm 31.5 29.0 9.7 26 12.4 SW 13 20 7 11 1011.7 - 0.0
23/02:00pm 31.1 27.2 9.3 26 12.3 S 20 28 11 15 1012.0 1011.6 0.0
23/01:30pm 31.1 28.7 9.9 27 12.1 SSW 13 19 7 10 1012.4 - 0.0
23/01:00pm 30.9 28.4 9.7 27 12.0 S 13 19 7 10 1012.8 1012.4 0.0
23/12:30pm 30.3 26.7 9.8 28 11.6 SSE 19 28 10 15 1013.2 - 0.0
23/12:00pm 30.1 27.3 10.1 29 11.4 SSE 15 26 8 14 1013.9 1013.5 0.0
23/11:30am 29.2 26.0 9.8 30 10.9 SSE 17 28 9 15 1014.5 - 0.0
23/11:00am 28.8 25.2 10.0 31 10.6 S 19 28 10 15 1015.2 1014.8 0.0
23/10:30am 28.4 25.2 10.1 32 10.3 SSE 17 26 9 14 1015.7 - 0.0
23/10:00am 27.5 23.8 10.2 34 9.7 SSE 20 30 11 16 1016.4 1016.0 0.0
23/09:30am 26.5 23.0 10.2 36 9.1 SSE 19 24 10 13 1016.7 - 0.0
23/09:00am 25.6 23.2 10.2 38 8.6 SSE 13 20 7 11 1016.9 1016.5 0.0
23/08:30am 24.8 23.2 10.3 40 8.1 S 9 13 5 7 1016.8 - 0.0
23/08:00am 23.7 23.9 10.4 43 7.4 CALM 0 0 0 0 1016.8 1016.4 0.0
23/07:30am 21.0 21.1 10.2 50 5.9 CALM 0 0 0 0 1016.7 - 0.0
23/07:00am 19.2 19.2 9.7 54 5.1 CALM 0 0 0 0 1016.2 1015.8 0.0
23/06:30am 18.1 18.0 9.5 57 4.5 CALM 0 0 0 0 1015.9 - 0.0
23/06:00am 17.7 17.5 9.1 57 4.5 CALM 0 0 0 0 1015.8 1015.4 0.0
23/05:30am 18.3 18.2 9.4 56 4.7 CALM 0 0 0 0 1015.4 - 0.0
23/05:00am 18.3 18.1 9.1 55 4.8 CALM 0 0 0 0 1015.4 1015.0 0.0
23/04:30am 18.4 18.1 8.7 53 5.1 CALM 0 0 0 0 1015.3 - 0.0
23/04:00am 18.9 18.7 9.1 53 5.2 CALM 0 0 0 0 1015.1 1014.7 0.0
23/03:30am 18.4 16.8 8.9 54 5.0 NE 7 9 4 5 1015.1 - 0.0
23/03:00am 18.2 18.0 9.0 55 4.8 CALM 0 0 0 0 1014.9 1014.5 0.0
23/02:30am 18.2 17.5 8.7 54 4.9 SSW 2 6 1 3 1014.6 - 0.0
23/02:00am 18.5 17.0 8.5 52 5.2 SSW 6 7 3 4 1014.5 1014.1 0.0
23/01:30am 19.3 17.8 9.2 52 5.3 SW 7 9 4 5 1014.5 - 0.0
23/01:00am 20.4 18.9 9.3 49 5.9 SW 7 9 4 5 1014.5 1014.1 0.0
23/12:30am 18.8 17.2 8.2 50 5.5 W 6 7 3 4 1014.6 - 0.0
23/12:00am 19.6 19.2 8.3 48 5.9 CALM 0 0 0 0 1014.5 1014.1 0.0
 
Date/Time
WST
Temp
°C
App
Temp
°C
Dew
Point
Rel
Hum
%
Delta-T
°C
Wind Press
QNH
hPa
Press
MSL
hPa
Rain
since 9 am
mm
Dir
 
Spd
km/h
Gust
km/h
Spd
kts
Gust
kts
22/11:30pm 20.5 20.2 8.8 47 6.2 CALM 0 0 0 0 1014.6 - 0.0
22/11:00pm 20.8 20.4 8.4 45 6.5 CALM 0 0 0 0 1014.6 1014.2 0.0
22/10:30pm 21.9 20.7 8.1 41 7.3 WSW 4 7 2 4 1014.8 - 0.0
22/10:00pm 23.3 20.9 8.6 39 7.9 SW 11 11 6 6 1014.9 1014.5 0.0
22/09:30pm 23.4 20.5 8.3 38 8.0 SW 13 13 7 7 1015.0 - 0.0
22/09:00pm 23.5 21.0 8.0 37 8.2 SW 11 13 6 7 1015.1 1014.7 0.0
22/08:30pm 23.9 21.2 7.5 35 8.6 SSW 11 13 6 7 1014.9 - 0.0
22/08:00pm 24.3 22.4 7.4 34 8.9 WSW 7 9 4 5 1014.8 1014.4 0.0
22/07:30pm 25.2 23.0 7.8 33 9.3 SSW 9 11 5 6 1014.6 - 0.0
22/07:00pm 25.6 23.0 7.7 32 9.6 S 11 15 6 8 1014.4 1014.0 0.0
22/06:30pm 26.1 23.7 7.2 30 10.0 SSW 9 9 5 5 1014.0 - 0.0
22/06:00pm 27.4 24.6 6.8 27 10.9 SSW 11 13 6 7 1013.5 1013.2 0.0
22/05:30pm 28.4 25.1 4.6 22 12.2 SW 11 13 6 7 1013.1 - 0.0
22/05:00pm 30.8 27.1 4.5 19 13.7 SW 13 17 7 9 1012.9 1012.5 0.0
22/04:30pm 32.0 28.6 2.1 15 15.1 W 9 15 5 8 1012.6 - 0.0
22/04:00pm 32.8 29.2 0.8 13 15.9 WNW 9 17 5 9 1012.5 1012.1 0.0
22/03:30pm 32.5 29.3 0.6 13 15.7 W 7 15 4 8 1012.5 - 0.0
22/03:00pm 32.3 29.0 0.4 13 15.7 ESE 7 13 4 7 1012.4 1012.0 0.0

Other Formats:

Comma delimited format used in spreadsheet applications
http://www.bom.gov.au/fwo/IDW60801/IDW60801.94206.axf

JavaScript Object Notation format (JSON) in row-major order
http://www.bom.gov.au/fwo/IDW60801/IDW60801.94206.json